createdAt,value
2022-09-27T00:02:06.717Z,13.70
2022-09-27T00:04:35.902Z,13.80
2022-09-27T00:07:05.456Z,13.70
2022-09-27T00:09:36.115Z,13.70
2022-09-27T00:12:05.972Z,13.80
2022-09-27T00:14:35.116Z,13.60
2022-09-27T00:17:04.318Z,13.60
2022-09-27T00:19:34.085Z,13.60
2022-09-27T00:22:03.687Z,13.60
2022-09-27T00:24:32.989Z,13.60
2022-09-27T00:27:03.673Z,13.60
2022-09-27T00:29:33.264Z,13.60
2022-09-27T00:32:03.090Z,13.50
2022-09-27T00:34:32.185Z,13.40
2022-09-27T00:37:01.354Z,13.40
2022-09-27T00:39:30.812Z,13.50
2022-09-27T00:42:00.340Z,13.50
2022-09-27T00:45:08.633Z,13.40
2022-09-27T00:47:46.490Z,13.40
2022-09-27T00:50:34.248Z,13.40
2022-09-27T00:53:13.024Z,13.30
2022-09-27T00:55:48.383Z,13.40
2022-09-27T00:58:22.395Z,13.50
2022-09-27T01:01:00.309Z,13.60
2022-09-27T01:03:36.600Z,13.60
2022-09-27T01:06:10.028Z,13.60
2022-09-27T01:08:39.307Z,13.60
2022-09-27T01:11:22.266Z,13.50
2022-09-27T01:14:19.859Z,13.60
2022-09-27T01:17:02.991Z,13.60
2022-09-27T01:20:16.683Z,13.60
2022-09-27T01:22:59.122Z,13.60
2022-09-27T01:25:56.372Z,13.60
2022-09-27T01:28:48.834Z,13.60
2022-09-27T01:31:26.118Z,13.60
2022-09-27T01:34:05.784Z,13.60
2022-09-27T01:36:45.942Z,13.50
2022-09-27T01:39:39.404Z,13.50
2022-09-27T01:42:35.351Z,13.30
2022-09-27T01:45:11.681Z,13.40
2022-09-27T01:47:56.385Z,13.30
2022-09-27T01:50:56.638Z,13.30
2022-09-27T01:53:32.252Z,13.40
2022-09-27T01:56:25.663Z,13.40
2022-09-27T01:59:11.523Z,13.40
2022-09-27T02:01:51.627Z,13.50
2022-09-27T02:04:28.928Z,13.60
2022-09-27T02:07:16.791Z,13.50
2022-09-27T02:09:51.196Z,13.60
2022-09-27T02:12:31.098Z,13.70
2022-09-27T02:15:06.471Z,13.70
2022-09-27T02:17:46.808Z,13.80
2022-09-27T02:20:28.648Z,13.80
2022-09-27T02:23:10.761Z,13.70
2022-09-27T02:25:47.273Z,13.50
2022-09-27T02:28:28.027Z,13.30
2022-09-27T02:30:58.105Z,13.40
2022-09-27T02:33:37.019Z,13.40
2022-09-27T02:36:09.063Z,13.40
2022-09-27T02:38:38.981Z,13.30
2022-09-27T02:41:16.262Z,13.10
2022-09-27T02:43:48.641Z,13.20
2022-09-27T02:46:49.479Z,13.20
2022-09-27T02:49:36.790Z,13.30
2022-09-27T02:52:38.017Z,13.10
2022-09-27T02:55:19.065Z,13.00
2022-09-27T02:58:08.769Z,13.00
2022-09-27T03:01:05.949Z,13.00
2022-09-27T03:03:54.731Z,12.70
2022-09-27T03:06:25.048Z,12.60
2022-09-27T03:08:56.850Z,12.40
2022-09-27T03:11:26.740Z,12.50
2022-09-27T03:14:08.464Z,12.70
2022-09-27T03:16:42.948Z,12.80
2022-09-27T03:19:32.099Z,12.90
2022-09-27T03:22:24.116Z,13.00
2022-09-27T03:24:58.397Z,12.90
2022-09-27T03:27:27.665Z,12.90
2022-09-27T03:29:56.928Z,12.90
2022-09-27T03:32:26.310Z,12.80
2022-09-27T03:35:15.114Z,12.60
2022-09-27T03:37:44.842Z,12.60
2022-09-27T03:40:15.531Z,12.70
2022-09-27T03:42:49.458Z,12.80
2022-09-27T03:45:19.310Z,12.70
2022-09-27T03:47:49.137Z,12.70
2022-09-27T03:50:18.721Z,12.80
2022-09-27T03:52:48.142Z,12.70
2022-09-27T03:55:19.010Z,12.70
2022-09-27T03:57:48.689Z,12.50
2022-09-27T04:00:19.798Z,12.60
2022-09-27T04:02:49.306Z,12.70
2022-09-27T04:05:29.327Z,12.80
2022-09-27T04:08:02.417Z,12.70
2022-09-27T04:10:36.899Z,12.70
2022-09-27T04:13:10.447Z,12.70
2022-09-27T04:15:52.221Z,12.70
2022-09-27T04:18:42.262Z,12.80
2022-09-27T04:21:34.280Z,12.80
2022-09-27T04:24:05.344Z,12.80
2022-09-27T04:26:37.160Z,12.80
2022-09-27T04:29:14.221Z,12.90
2022-09-27T04:31:50.165Z,12.70
2022-09-27T04:35:10.055Z,12.80
2022-09-27T04:37:40.834Z,12.70
2022-09-27T04:40:10.957Z,12.70
2022-09-27T04:42:41.669Z,12.70
2022-09-27T04:45:13.296Z,12.80
2022-09-27T04:47:45.085Z,12.80
2022-09-27T04:50:15.845Z,12.80
2022-09-27T04:53:00.413Z,12.70
2022-09-27T04:55:29.768Z,12.50
2022-09-27T04:58:01.642Z,12.60
2022-09-27T05:00:32.373Z,12.70
2022-09-27T05:03:18.848Z,12.70
2022-09-27T05:06:00.719Z,12.60
2022-09-27T05:08:30.094Z,12.70
2022-09-27T05:11:28.618Z,12.60
2022-09-27T05:14:27.458Z,12.60
2022-09-27T05:17:08.301Z,12.40
2022-09-27T05:19:53.263Z,12.50
2022-09-27T05:22:41.458Z,12.50
2022-09-27T05:25:11.019Z,12.50
2022-09-27T05:27:42.431Z,12.50
2022-09-27T05:30:14.399Z,12.40
2022-09-27T05:32:50.043Z,12.50
2022-09-27T05:35:47.706Z,12.50
2022-09-27T05:38:17.461Z,12.50
2022-09-27T05:40:51.722Z,12.60
2022-09-27T05:43:21.447Z,12.60
2022-09-27T05:45:53.998Z,12.60
2022-09-27T05:48:24.611Z,12.50
2022-09-27T05:51:02.750Z,12.40
2022-09-27T05:53:33.477Z,12.40
2022-09-27T05:56:06.878Z,12.30
2022-09-27T05:58:59.919Z,12.20
2022-09-27T06:01:37.122Z,12.00
2022-09-27T06:04:24.874Z,12.20
2022-09-27T06:07:07.567Z,12.20
2022-09-27T06:09:36.764Z,12.20
2022-09-27T06:12:10.822Z,12.00
2022-09-27T06:14:40.427Z,12.00
2022-09-27T06:17:15.546Z,12.00
2022-09-27T06:19:47.674Z,11.70
2022-09-27T06:22:17.620Z,11.70
2022-09-27T06:24:56.297Z,11.80
2022-09-27T06:27:28.584Z,12.00
2022-09-27T06:30:20.211Z,12.10
2022-09-27T06:33:00.493Z,12.20
2022-09-27T06:35:50.227Z,12.00
2022-09-27T06:38:21.950Z,11.90
2022-09-27T06:41:14.246Z,11.90
2022-09-27T06:44:02.388Z,12.20
2022-09-27T06:46:51.784Z,12.10
2022-09-27T06:49:25.562Z,12.00
2022-09-27T06:51:59.684Z,12.00
2022-09-27T06:54:28.929Z,12.00
2022-09-27T06:57:02.303Z,12.00
2022-09-27T06:59:52.222Z,12.00
2022-09-27T07:02:40.832Z,11.90
2022-09-27T07:05:34.671Z,11.80
2022-09-27T07:08:16.218Z,11.60
2022-09-27T07:10:45.604Z,11.60
2022-09-27T07:13:15.191Z,11.70
2022-09-27T07:15:44.718Z,11.60
2022-09-27T07:18:17.160Z,11.80
2022-09-27T07:20:47.715Z,11.90
2022-09-27T07:23:18.582Z,12.00
2022-09-27T07:25:48.944Z,12.10
2022-09-27T07:28:22.064Z,12.10
2022-09-27T07:30:56.597Z,12.20
2022-09-27T07:33:26.123Z,12.30
2022-09-27T07:35:56.649Z,12.40
2022-09-27T07:38:26.929Z,12.30
2022-09-27T07:40:56.410Z,12.30
2022-09-27T07:43:25.735Z,12.30
2022-09-27T07:45:57.996Z,12.40
2022-09-27T07:48:46.571Z,12.40
2022-09-27T07:51:32.663Z,12.20
2022-09-27T07:54:11.443Z,12.30
2022-09-27T07:56:43.644Z,12.20
2022-09-27T07:59:14.912Z,12.30
2022-09-27T08:01:46.367Z,12.20
2022-09-27T08:04:15.721Z,12.10
2022-09-27T08:06:46.301Z,12.10
2022-09-27T08:09:15.713Z,12.30
2022-09-27T08:11:46.290Z,12.30
2022-09-27T08:14:16.736Z,12.30
2022-09-27T08:16:49.850Z,12.40
2022-09-27T08:19:34.746Z,12.30
2022-09-27T08:22:43.673Z,12.30
2022-09-27T08:25:34.883Z,12.30
2022-09-27T08:28:06.811Z,12.50
2022-09-27T08:30:45.906Z,12.50
2022-09-27T08:33:16.922Z,12.50
2022-09-27T08:35:46.643Z,12.50
2022-09-27T08:38:17.541Z,12.40
2022-09-27T08:40:54.823Z,12.40
2022-09-27T08:43:43.258Z,12.40
2022-09-27T08:46:28.995Z,12.50
2022-09-27T08:49:07.180Z,12.70
2022-09-27T08:51:37.570Z,12.70
2022-09-27T08:54:13.325Z,12.80
2022-09-27T08:56:42.457Z,12.90
2022-09-27T08:59:15.919Z,12.90
2022-09-27T09:01:47.560Z,12.80
2022-09-27T09:04:32.618Z,12.80
2022-09-27T09:07:13.938Z,12.80
2022-09-27T09:09:57.418Z,12.90
2022-09-27T09:12:48.580Z,12.80
2022-09-27T09:15:54.482Z,12.90
2022-09-27T09:18:43.827Z,12.90
2022-09-27T09:21:31.110Z,12.90
2022-09-27T09:24:24.955Z,13.00
2022-09-27T09:27:03.823Z,12.90
2022-09-27T09:30:19.006Z,13.00
2022-09-27T09:33:20.748Z,12.90
2022-09-27T09:35:54.882Z,12.80
2022-09-27T09:38:30.304Z,12.90
2022-09-27T09:41:04.997Z,12.80
2022-09-27T09:43:39.961Z,12.90
2022-09-27T09:46:17.416Z,13.20
2022-09-27T09:48:50.095Z,13.30
2022-09-27T09:51:25.729Z,13.40
2022-09-27T09:54:00.254Z,13.40
2022-09-27T09:56:39.644Z,13.50
2022-09-27T09:59:18.504Z,13.50
2022-09-27T10:01:50.824Z,13.50
2022-09-27T10:04:24.552Z,13.50
2022-09-27T10:06:57.471Z,13.50
2022-09-27T10:09:30.233Z,13.60
2022-09-27T10:12:18.220Z,13.60
2022-09-27T10:14:51.932Z,13.60
2022-09-27T10:17:27.550Z,13.70
2022-09-27T10:19:59.817Z,13.90
2022-09-27T10:22:34.054Z,13.90
2022-09-27T10:25:11.375Z,14.00
2022-09-27T10:27:57.229Z,14.00
2022-09-27T10:30:36.575Z,14.10
2022-09-27T10:33:19.189Z,14.10
2022-09-27T10:35:53.292Z,14.10
2022-09-27T10:38:32.286Z,14.10
2022-09-27T10:41:28.919Z,14.20
2022-09-27T10:44:25.487Z,14.10
2022-09-27T10:47:22.809Z,14.20
2022-09-27T10:50:08.008Z,14.20
2022-09-27T10:53:14.984Z,14.10
2022-09-27T10:55:50.753Z,14.20
2022-09-27T10:58:27.390Z,14.40
2022-09-27T11:01:01.263Z,14.50
2022-09-27T11:03:35.478Z,14.40
2022-09-27T11:06:25.800Z,14.60
2022-09-27T11:09:11.930Z,14.70
2022-09-27T11:11:41.184Z,14.70
2022-09-27T11:14:21.658Z,14.70
2022-09-27T11:17:17.336Z,14.60
2022-09-27T11:20:14.516Z,14.60
2022-09-27T11:23:29.762Z,14.60
2022-09-27T11:26:28.405Z,14.60
2022-09-27T11:29:09.702Z,14.50
2022-09-27T11:32:30.879Z,14.40
2022-09-27T11:35:20.239Z,14.50
2022-09-27T11:37:59.810Z,14.50
2022-09-27T11:40:55.418Z,14.60
2022-09-27T11:43:43.871Z,14.70
2022-09-27T11:46:31.973Z,14.60
2022-09-27T11:49:32.936Z,14.60
2022-09-27T11:52:30.921Z,14.60
2022-09-27T11:55:16.371Z,14.40
2022-09-27T11:57:55.415Z,14.20
2022-09-27T12:00:34.156Z,13.70
2022-09-27T12:03:46.461Z,13.50
2022-09-27T12:06:24.520Z,12.50
2022-09-27T12:09:08.099Z,12.60
2022-09-27T12:11:44.361Z,12.40
2022-09-27T12:14:26.545Z,12.30
2022-09-27T12:16:58.825Z,12.10
2022-09-27T12:19:32.298Z,12.10
2022-09-27T12:22:07.991Z,12.20
2022-09-27T12:24:45.081Z,12.30
2022-09-27T12:27:45.705Z,12.30
2022-09-27T12:30:20.481Z,12.50
2022-09-27T12:32:58.995Z,12.60
2022-09-27T12:35:32.496Z,12.60
2022-09-27T12:38:06.667Z,12.70
2022-09-27T12:40:42.366Z,12.70
2022-09-27T12:43:24.196Z,12.60
2022-09-27T12:46:17.597Z,12.70
2022-09-27T12:48:56.210Z,12.70
2022-09-27T12:51:26.010Z,12.70
2022-09-27T12:54:32.977Z,12.80
2022-09-27T12:57:20.853Z,12.80
2022-09-27T13:00:12.236Z,12.70
2022-09-27T13:03:16.069Z,12.80
2022-09-27T13:06:21.209Z,12.80
2022-09-27T13:09:25.620Z,12.60
2022-09-27T13:12:05.540Z,12.80
2022-09-27T13:14:42.170Z,12.90
2022-09-27T13:17:54.371Z,12.80
2022-09-27T13:20:49.357Z,12.70
2022-09-27T13:24:02.434Z,12.60
2022-09-27T13:26:51.132Z,12.50
2022-09-27T13:29:38.512Z,12.30
2022-09-27T13:32:23.320Z,12.30
2022-09-27T13:35:23.178Z,12.20
2022-09-27T13:38:01.913Z,12.30
2022-09-27T13:40:44.047Z,12.30
2022-09-27T13:43:54.060Z,12.30
2022-09-27T13:46:53.978Z,12.40
2022-09-27T13:49:32.872Z,12.50
2022-09-27T13:52:21.799Z,12.50
2022-09-27T13:55:04.063Z,12.50
2022-09-27T13:57:53.296Z,12.50
2022-09-27T14:00:32.196Z,12.50
2022-09-27T14:03:54.930Z,12.60
2022-09-27T14:06:31.909Z,12.60
2022-09-27T14:09:06.455Z,12.60
2022-09-27T14:11:41.733Z,12.40
2022-09-27T14:14:19.010Z,12.30
2022-09-27T14:16:54.769Z,12.30
2022-09-27T14:19:28.054Z,12.40
2022-09-27T14:22:14.479Z,12.50
2022-09-27T14:25:05.003Z,12.60
2022-09-27T14:27:39.940Z,12.60
2022-09-27T14:30:25.386Z,12.70
2022-09-27T14:33:06.522Z,12.80
2022-09-27T14:36:08.164Z,12.90
2022-09-27T14:38:40.176Z,12.90
2022-09-27T14:41:19.687Z,12.80
2022-09-27T14:43:50.524Z,12.90
2022-09-27T14:46:29.381Z,12.90
2022-09-27T14:48:59.341Z,13.00
2022-09-27T14:51:33.224Z,13.00
2022-09-27T14:54:05.416Z,13.10
2022-09-27T14:56:37.724Z,13.10
2022-09-27T14:59:16.499Z,13.10
2022-09-27T15:01:51.348Z,13.20
2022-09-27T15:04:23.076Z,13.40
2022-09-27T15:06:54.427Z,13.40
2022-09-27T15:09:24.276Z,13.40
2022-09-27T15:12:00.779Z,13.50
2022-09-27T15:14:33.336Z,13.50
2022-09-27T15:17:06.026Z,13.60
2022-09-27T15:19:35.620Z,13.60
2022-09-27T15:22:30.405Z,13.60
2022-09-27T15:25:17.207Z,13.60
2022-09-27T15:27:51.330Z,13.70
2022-09-27T15:30:29.664Z,13.80
2022-09-27T15:32:59.383Z,13.80
2022-09-27T15:35:33.443Z,13.80
2022-09-27T15:38:26.937Z,13.90
2022-09-27T15:41:06.035Z,13.80
2022-09-27T15:43:42.118Z,13.80
2022-09-27T15:46:36.540Z,13.90
2022-09-27T15:49:31.342Z,13.70
2022-09-27T15:52:03.230Z,13.60
2022-09-27T15:54:35.768Z,13.50
2022-09-27T15:57:06.693Z,13.50
2022-09-27T15:59:37.578Z,13.50
2022-09-27T16:02:17.975Z,13.30
2022-09-27T16:04:46.975Z,13.30
2022-09-27T16:07:16.496Z,13.30
2022-09-27T16:09:46.787Z,13.40
2022-09-27T16:12:15.936Z,13.30
2022-09-27T16:14:45.027Z,13.40
2022-09-27T16:17:14.246Z,13.50
2022-09-27T16:19:43.178Z,13.60
2022-09-27T16:22:12.146Z,13.60
2022-09-27T16:24:41.138Z,13.50
2022-09-27T16:27:12.552Z,13.50
2022-09-27T16:29:46.072Z,13.50
2022-09-27T16:32:15.547Z,13.50
2022-09-27T16:34:44.666Z,13.50
2022-09-27T16:37:14.024Z,13.50
2022-09-27T16:39:43.577Z,13.50
2022-09-27T16:42:14.546Z,13.50
2022-09-27T16:44:43.678Z,13.50
2022-09-27T16:47:12.920Z,13.40
2022-09-27T16:49:59.502Z,13.30
2022-09-27T16:52:28.580Z,13.20
2022-09-27T16:54:57.598Z,13.20
2022-09-27T16:57:29.257Z,13.20
2022-09-27T16:59:58.706Z,13.30
2022-09-27T17:02:28.673Z,13.30
2022-09-27T17:04:57.669Z,13.20
2022-09-27T17:07:26.986Z,13.20
2022-09-27T17:10:01.491Z,13.30
2022-09-27T17:12:33.092Z,13.20
2022-09-27T17:15:02.549Z,13.10
2022-09-27T17:17:32.142Z,13.10
2022-09-27T17:20:01.929Z,13.10
2022-09-27T17:22:31.854Z,12.90
2022-09-27T17:25:00.978Z,12.70
2022-09-27T17:27:31.354Z,12.40
2022-09-27T17:30:00.440Z,12.30
2022-09-27T17:32:29.429Z,12.30
2022-09-27T17:34:58.598Z,12.10
2022-09-27T17:37:27.913Z,12.20
2022-09-27T17:39:57.505Z,12.30
2022-09-27T17:42:28.858Z,12.30
2022-09-27T17:44:59.188Z,12.40
2022-09-27T17:47:46.808Z,12.50
2022-09-27T17:50:28.966Z,12.60
2022-09-27T17:52:59.297Z,12.70
2022-09-27T17:55:28.762Z,12.70
2022-09-27T17:57:57.903Z,12.70
2022-09-27T18:00:28.347Z,12.80
2022-09-27T18:02:57.413Z,12.90
2022-09-27T18:05:26.593Z,12.80
2022-09-27T18:07:55.542Z,12.70
2022-09-27T18:10:24.556Z,12.60
2022-09-27T18:12:53.867Z,12.60
2022-09-27T18:15:23.065Z,12.60
2022-09-27T18:17:58.001Z,12.50
2022-09-27T18:20:27.442Z,12.40
2022-09-27T18:22:56.590Z,12.50
2022-09-27T18:25:26.029Z,12.40
2022-09-27T18:27:55.842Z,12.40
2022-09-27T18:30:24.918Z,12.30
2022-09-27T18:32:55.575Z,12.30
2022-09-27T18:35:24.949Z,12.40
2022-09-27T18:37:54.356Z,12.40
2022-09-27T18:40:38.349Z,12.40
2022-09-27T18:43:12.259Z,12.40
2022-09-27T18:45:41.236Z,12.30
2022-09-27T18:48:11.663Z,12.30
2022-09-27T18:50:40.650Z,12.10
2022-09-27T18:53:09.586Z,12.10
2022-09-27T18:55:39.885Z,12.20
2022-09-27T18:58:14.069Z,12.20
2022-09-27T19:00:43.648Z,12.40
2022-09-27T19:03:17.287Z,12.30
2022-09-27T19:05:55.422Z,12.40
2022-09-27T19:08:24.579Z,12.50
2022-09-27T19:10:54.298Z,12.40
2022-09-27T19:13:28.289Z,12.30
2022-09-27T19:16:02.507Z,12.30
2022-09-27T19:18:33.339Z,12.30
2022-09-27T19:21:11.677Z,12.30
2022-09-27T19:23:41.916Z,12.30
2022-09-27T19:26:14.918Z,12.30
2022-09-27T19:28:45.692Z,12.20
2022-09-27T19:31:18.482Z,12.10
2022-09-27T19:33:49.652Z,12.10
2022-09-27T19:36:20.605Z,12.10
2022-09-27T19:38:51.822Z,12.20
2022-09-27T19:41:20.815Z,12.10
2022-09-27T19:43:52.924Z,12.10
2022-09-27T19:46:23.568Z,12.10
2022-09-27T19:48:55.051Z,12.10
2022-09-27T19:51:27.154Z,11.90
2022-09-27T19:53:56.863Z,11.80
2022-09-27T19:56:27.026Z,11.80
2022-09-27T19:58:56.118Z,11.80
2022-09-27T20:01:26.826Z,11.90
2022-09-27T20:03:57.953Z,11.90
2022-09-27T20:06:27.144Z,11.90
2022-09-27T20:08:56.369Z,11.90
2022-09-27T20:11:26.562Z,11.90
2022-09-27T20:13:55.806Z,11.90
2022-09-27T20:16:26.796Z,11.90
2022-09-27T20:18:59.440Z,11.90
2022-09-27T20:21:33.991Z,11.80
2022-09-27T20:24:04.342Z,11.90
2022-09-27T20:26:36.445Z,11.90
2022-09-27T20:29:07.385Z,11.80
2022-09-27T20:31:51.701Z,11.80
2022-09-27T20:34:31.540Z,11.80
2022-09-27T20:37:00.798Z,11.80
2022-09-27T20:39:29.837Z,11.80
2022-09-27T20:41:58.874Z,11.70
2022-09-27T20:44:27.903Z,11.70
2022-09-27T20:46:56.930Z,11.70
2022-09-27T20:49:26.073Z,11.70
2022-09-27T20:51:56.465Z,11.70
2022-09-27T20:54:25.838Z,11.60
2022-09-27T20:56:55.090Z,11.60
2022-09-27T20:59:24.481Z,11.70
2022-09-27T21:01:53.789Z,11.60
2022-09-27T21:04:23.769Z,11.70
2022-09-27T21:06:53.037Z,11.60
2022-09-27T21:09:23.342Z,11.60
2022-09-27T21:11:53.802Z,11.60
2022-09-27T21:14:22.926Z,11.50
2022-09-27T21:16:52.360Z,11.60
2022-09-27T21:19:21.281Z,11.60
2022-09-27T21:21:54.238Z,11.60
2022-09-27T21:24:24.605Z,11.70
2022-09-27T21:26:55.961Z,11.60
2022-09-27T21:29:25.222Z,11.60
2022-09-27T21:31:54.291Z,11.50
2022-09-27T21:34:23.298Z,11.50
2022-09-27T21:36:52.397Z,11.50
2022-09-27T21:39:21.542Z,11.50
2022-09-27T21:41:51.852Z,11.50
2022-09-27T21:44:20.815Z,11.40
2022-09-27T21:46:51.919Z,11.40
2022-09-27T21:49:20.933Z,11.30
2022-09-27T21:51:50.027Z,11.40
2022-09-27T21:54:18.969Z,11.40
2022-09-27T21:56:48.113Z,11.50
2022-09-27T21:59:18.817Z,11.60
2022-09-27T22:01:48.012Z,11.60
2022-09-27T22:04:17.097Z,11.70
2022-09-27T22:06:46.090Z,11.60
2022-09-27T22:09:17.887Z,11.60
2022-09-27T22:11:47.569Z,11.70
2022-09-27T22:14:19.830Z,11.80
2022-09-27T22:16:49.155Z,11.80
2022-09-27T22:19:18.259Z,11.80
2022-09-27T22:21:47.497Z,11.80
2022-09-27T22:24:18.824Z,11.90
2022-09-27T22:26:52.746Z,11.90
2022-09-27T22:29:23.101Z,11.90
2022-09-27T22:31:52.237Z,11.90
2022-09-27T22:34:28.814Z,11.90
2022-09-27T22:37:00.703Z,11.90
2022-09-27T22:39:29.906Z,11.80
2022-09-27T22:41:59.128Z,11.90
2022-09-27T22:44:31.414Z,11.90
2022-09-27T22:47:00.404Z,11.90
2022-09-27T22:49:29.454Z,11.90
2022-09-27T22:51:58.671Z,11.90
2022-09-27T22:54:27.658Z,11.80
2022-09-27T22:56:57.413Z,11.80
2022-09-27T22:59:26.842Z,11.80
2022-09-27T23:01:57.518Z,11.90
2022-09-27T23:04:26.598Z,11.90
2022-09-27T23:06:55.537Z,12.00
2022-09-27T23:09:24.612Z,12.00
2022-09-27T23:11:53.830Z,12.00
2022-09-27T23:14:23.333Z,12.00
2022-09-27T23:16:52.368Z,12.00
2022-09-27T23:19:23.366Z,12.00
2022-09-27T23:21:52.312Z,11.90
2022-09-27T23:24:21.365Z,11.90
2022-09-27T23:27:10.428Z,11.90
2022-09-27T23:29:39.916Z,11.90
2022-09-27T23:32:08.945Z,11.90
2022-09-27T23:34:39.427Z,11.90
2022-09-27T23:37:08.454Z,11.90
2022-09-27T23:39:37.403Z,11.90
2022-09-27T23:42:06.506Z,11.80
2022-09-27T23:44:35.552Z,11.80
2022-09-27T23:47:04.569Z,11.70
2022-09-27T23:49:33.601Z,11.70
2022-09-27T23:52:04.661Z,11.70
2022-09-27T23:54:34.224Z,11.70
2022-09-27T23:57:03.287Z,11.80
2022-09-27T23:59:32.245Z,11.60
